createdAt,value
2019-01-31T12:27:05.469Z,10.25
2019-01-31T12:29:34.178Z,10.52
2019-01-31T12:32:02.820Z,10.37
2019-01-31T12:34:31.375Z,10.28
2019-01-31T12:37:00.033Z,9.98
2019-01-31T12:39:30.078Z,9.86
2019-01-31T12:41:58.561Z,9.99
2019-01-31T12:44:27.270Z,9.92
2019-01-31T12:46:56.249Z,9.93
2019-01-31T12:49:24.720Z,10.04
2019-01-31T12:51:53.201Z,10.12
2019-01-31T12:54:22.449Z,10.18
2019-01-31T12:56:51.331Z,10.09
2019-01-31T12:59:20.541Z,10.14
2019-01-31T13:01:49.366Z,10.20
2019-01-31T13:04:20.534Z,9.79
2019-01-31T13:06:48.544Z,10.13
2019-01-31T13:09:18.868Z,9.85
2019-01-31T13:11:47.693Z,10.08
2019-01-31T13:14:16.398Z,9.97
2019-01-31T13:16:45.299Z,9.93
2019-01-31T13:19:14.139Z,9.89
2019-01-31T13:21:43.086Z,10.04
2019-01-31T13:24:11.851Z,9.94
2019-01-31T13:26:40.775Z,9.91
2019-01-31T13:29:09.743Z,9.84
2019-01-31T13:31:38.796Z,9.66
2019-01-31T13:34:08.779Z,9.67
2019-01-31T13:36:37.435Z,9.52
2019-01-31T13:39:10.415Z,9.50
2019-01-31T13:41:41.786Z,9.33
2019-01-31T13:44:10.106Z,9.48
2019-01-31T13:46:39.123Z,9.43
2019-01-31T13:49:08.048Z,9.45
2019-01-31T13:51:36.779Z,9.39
2019-01-31T13:54:06.479Z,9.39
2019-01-31T13:56:45.274Z,9.29
2019-01-31T13:59:05.645Z,9.28
2019-01-31T14:01:34.439Z,9.16
2019-01-31T14:04:03.155Z,9.09
2019-01-31T14:06:32.061Z,8.90
2019-01-31T14:09:00.749Z,8.91
2019-01-31T14:11:29.622Z,8.90
2019-01-31T14:14:08.744Z,8.86
2019-01-31T14:16:29.243Z,8.93
2019-01-31T14:18:58.207Z,8.80
2019-01-31T14:21:26.882Z,8.82
2019-01-31T14:23:56.418Z,8.79
2019-01-31T14:26:25.173Z,8.69
2019-01-31T14:28:53.951Z,8.56
2019-01-31T14:31:22.808Z,8.41
2019-01-31T14:33:51.704Z,8.53
2019-01-31T14:36:20.585Z,8.44
2019-01-31T14:38:49.517Z,8.31
2019-01-31T14:41:18.258Z,8.35
2019-01-31T14:43:46.949Z,8.30
2019-01-31T14:46:15.954Z,8.33
2019-01-31T14:48:45.041Z,8.36
2019-01-31T14:51:13.702Z,8.42
2019-01-31T14:53:42.764Z,8.42
2019-01-31T14:56:11.588Z,8.40
2019-01-31T14:58:40.313Z,8.45
2019-01-31T15:01:09.064Z,8.47
2019-01-31T15:03:38.005Z,8.45
2019-01-31T15:06:06.771Z,8.31
2019-01-31T15:08:35.657Z,8.23
2019-01-31T15:11:05.094Z,8.07
2019-01-31T15:13:33.885Z,8.09
2019-01-31T15:16:04.194Z,8.05
2019-01-31T15:18:33.156Z,7.90
2019-01-31T15:21:01.969Z,7.82
2019-01-31T15:23:30.655Z,7.62
2019-01-31T15:25:59.448Z,7.52
2019-01-31T15:28:28.157Z,7.52
2019-01-31T15:30:56.917Z,7.49
2019-01-31T15:33:27.590Z,7.50
2019-01-31T15:35:56.471Z,7.32
2019-01-31T15:38:25.459Z,6.83
2019-01-31T15:40:54.204Z,6.26
2019-01-31T15:43:23.233Z,5.94
2019-01-31T15:45:51.955Z,5.83
2019-01-31T15:48:20.800Z,5.73
2019-01-31T15:50:49.517Z,5.61
2019-01-31T15:53:18.192Z,5.37
2019-01-31T15:55:46.967Z,5.26
2019-01-31T15:58:15.843Z,5.10
2019-01-31T16:00:49.808Z,5.06
2019-01-31T16:03:19.895Z,4.98
2019-01-31T16:05:49.264Z,4.91
2019-01-31T16:08:18.007Z,4.91
2019-01-31T16:10:47.262Z,4.82
2019-01-31T16:13:16.109Z,4.83
2019-01-31T16:15:45.241Z,4.78
2019-01-31T16:18:14.367Z,4.72
2019-01-31T16:20:43.577Z,4.58
2019-01-31T16:23:12.459Z,4.39
2019-01-31T16:25:41.889Z,4.31
2019-01-31T16:28:10.825Z,4.33
2019-01-31T16:30:39.517Z,4.31
2019-01-31T16:33:08.822Z,4.31
2019-01-31T16:35:37.516Z,4.39
2019-01-31T16:38:07.371Z,4.46
2019-01-31T16:40:36.202Z,4.51
2019-01-31T16:43:06.271Z,4.56
2019-01-31T16:45:34.980Z,4.63
2019-01-31T16:48:04.264Z,4.66
2019-01-31T16:50:33.410Z,4.70
2019-01-31T16:53:02.058Z,4.70
2019-01-31T16:55:31.274Z,4.74
2019-01-31T16:58:00.534Z,4.71
2019-01-31T17:00:32.000Z,4.76
2019-01-31T17:03:00.932Z,4.37
2019-01-31T17:05:31.897Z,4.83
2019-01-31T17:08:00.817Z,4.89
2019-01-31T17:10:29.685Z,4.90
2019-01-31T17:12:58.456Z,4.88
2019-01-31T17:15:27.414Z,4.91
2019-01-31T17:17:56.271Z,4.93
2019-01-31T17:20:36.803Z,4.96
2019-01-31T17:23:05.874Z,5.00
2019-01-31T17:25:34.529Z,5.00
2019-01-31T17:28:03.281Z,5.07
2019-01-31T17:30:31.960Z,5.09
2019-01-31T17:33:00.624Z,5.14
2019-01-31T17:35:29.317Z,5.14
2019-01-31T17:37:57.995Z,5.19
2019-01-31T17:40:35.529Z,5.19
2019-01-31T17:43:04.885Z,5.25
2019-01-31T17:45:33.548Z,5.34
2019-01-31T17:48:02.432Z,5.33
2019-01-31T17:50:31.092Z,5.46
2019-01-31T17:52:59.805Z,5.45
2019-01-31T17:55:28.895Z,5.44
2019-01-31T17:57:57.554Z,5.48
2019-01-31T18:00:39.372Z,5.51
2019-01-31T18:03:08.737Z,5.48
2019-01-31T18:05:37.418Z,5.52
2019-01-31T18:08:09.159Z,5.53
2019-01-31T18:10:36.960Z,5.57
2019-01-31T18:13:05.804Z,5.58
2019-01-31T18:15:41.691Z,5.60
2019-01-31T18:18:06.128Z,5.66
2019-01-31T18:20:34.820Z,5.67
2019-01-31T18:23:03.469Z,5.64
2019-01-31T18:25:32.178Z,5.51
2019-01-31T18:28:00.873Z,5.47
2019-01-31T18:30:32.419Z,5.36
2019-01-31T18:33:01.156Z,5.35
2019-01-31T18:35:30.801Z,5.36
2019-01-31T18:37:59.448Z,5.39
2019-01-31T18:40:33.582Z,5.38
2019-01-31T18:43:02.371Z,5.45
2019-01-31T18:45:33.759Z,5.36
2019-01-31T18:48:02.597Z,5.18
2019-01-31T18:50:36.925Z,5.05
2019-01-31T18:53:06.102Z,4.94
2019-01-31T18:55:34.804Z,4.80
2019-01-31T18:58:03.550Z,4.78
2019-01-31T19:00:37.923Z,4.76
2019-01-31T19:03:07.834Z,4.66
2019-01-31T19:05:36.605Z,4.61
2019-01-31T19:08:08.871Z,4.55
2019-01-31T19:10:43.441Z,4.50
2019-01-31T19:13:06.784Z,4.39
2019-01-31T19:15:35.495Z,4.40
2019-01-31T19:18:06.248Z,4.38
2019-01-31T19:20:35.453Z,4.34
2019-01-31T19:23:06.623Z,4.24
2019-01-31T19:25:35.287Z,4.22
2019-01-31T19:28:04.761Z,4.23
2019-01-31T19:30:38.002Z,4.04
2019-01-31T19:33:08.169Z,4.02
2019-01-31T19:35:37.544Z,3.93
2019-01-31T19:38:07.563Z,3.88
2019-01-31T19:40:38.599Z,3.82
2019-01-31T19:43:08.742Z,3.75
2019-01-31T19:45:40.321Z,3.72
2019-01-31T19:48:11.174Z,3.63
2019-01-31T19:50:43.393Z,3.55
2019-01-31T19:53:13.918Z,3.46
2019-01-31T19:55:42.896Z,3.43
2019-01-31T19:58:11.772Z,3.45
2019-01-31T20:00:40.811Z,3.42
2019-01-31T20:03:09.981Z,3.29
2019-01-31T20:05:38.717Z,3.29
2019-01-31T20:08:09.314Z,3.26
2019-01-31T20:10:38.033Z,3.16
2019-01-31T20:13:06.773Z,3.11
2019-01-31T20:15:35.642Z,3.05
2019-01-31T20:18:04.663Z,3.12
2019-01-31T20:20:33.562Z,3.14
2019-01-31T20:23:02.240Z,3.09
2019-01-31T20:25:31.758Z,2.92
2019-01-31T20:28:00.422Z,2.94
2019-01-31T20:30:31.097Z,2.96
2019-01-31T20:33:01.132Z,2.87
2019-01-31T20:35:30.309Z,2.90
2019-01-31T20:37:59.212Z,2.77
2019-01-31T20:40:39.079Z,2.70
2019-01-31T20:43:07.994Z,2.74
2019-01-31T20:45:37.064Z,2.72
2019-01-31T20:48:06.250Z,2.73
2019-01-31T20:50:36.921Z,2.72
2019-01-31T20:53:06.151Z,2.71
2019-01-31T20:55:34.823Z,2.75
2019-01-31T20:58:03.831Z,2.81
2019-01-31T21:00:38.447Z,2.81
2019-01-31T21:03:08.313Z,2.75
2019-01-31T21:05:37.485Z,2.65
2019-01-31T21:08:07.039Z,2.70
2019-01-31T21:10:36.093Z,2.65
2019-01-31T21:13:06.490Z,2.67
2019-01-31T21:15:35.174Z,2.70
2019-01-31T21:18:04.451Z,2.76
2019-01-31T21:20:33.110Z,2.76
2019-01-31T21:23:01.781Z,2.80
2019-01-31T21:25:34.525Z,2.77
2019-01-31T21:28:03.120Z,2.75
2019-01-31T21:30:34.482Z,2.51
2019-01-31T21:33:03.251Z,2.67
2019-01-31T21:35:32.118Z,2.70
2019-01-31T21:38:00.783Z,2.59
2019-01-31T21:40:34.669Z,2.47
2019-01-31T21:43:03.835Z,2.48
2019-01-31T21:45:32.502Z,2.45
2019-01-31T21:48:01.307Z,2.38
2019-01-31T21:50:33.809Z,2.36
2019-01-31T21:53:02.526Z,2.34
2019-01-31T21:55:31.331Z,2.32
2019-01-31T21:58:00.030Z,2.38
2019-01-31T22:00:34.356Z,2.42
2019-01-31T22:03:04.907Z,2.48
2019-01-31T22:05:33.787Z,2.47
2019-01-31T22:08:02.593Z,2.54
2019-01-31T22:10:31.582Z,2.45
2019-01-31T22:13:02.791Z,2.54
2019-01-31T22:15:33.918Z,2.59
2019-01-31T22:18:02.641Z,2.61
2019-01-31T22:20:31.319Z,2.52
2019-01-31T22:23:00.008Z,2.46
2019-01-31T22:25:28.761Z,2.42
2019-01-31T22:27:57.439Z,2.37
2019-01-31T22:30:34.802Z,2.55
2019-01-31T22:33:03.512Z,2.50
2019-01-31T22:35:32.514Z,2.53
2019-01-31T22:38:01.391Z,2.39
2019-01-31T22:40:30.142Z,2.43
2019-01-31T22:42:58.888Z,2.48
2019-01-31T22:45:29.850Z,2.43
2019-01-31T22:47:58.519Z,2.45
2019-01-31T22:50:27.272Z,2.46
2019-01-31T22:52:55.959Z,2.42
2019-01-31T22:55:26.624Z,2.24
2019-01-31T22:57:55.806Z,2.17
2019-01-31T23:00:35.048Z,2.22
2019-01-31T23:03:04.523Z,2.20
2019-01-31T23:05:33.207Z,2.19
2019-01-31T23:08:01.912Z,2.29
2019-01-31T23:10:30.920Z,2.17
2019-01-31T23:12:59.892Z,2.09
2019-01-31T23:15:28.578Z,1.97
2019-01-31T23:17:57.271Z,2.03
2019-01-31T23:20:26.059Z,2.12
2019-01-31T23:22:54.955Z,2.11
2019-01-31T23:25:23.684Z,2.10
2019-01-31T23:27:52.453Z,2.06
2019-01-31T23:30:21.058Z,2.05
2019-01-31T23:32:49.728Z,2.02
2019-01-31T23:35:18.400Z,2.05
2019-01-31T23:37:47.119Z,1.95
2019-01-31T23:40:16.596Z,1.95
2019-01-31T23:42:45.433Z,1.85
2019-01-31T23:45:18.774Z,1.89
2019-01-31T23:47:48.918Z,2.00
2019-01-31T23:50:17.994Z,1.98
2019-01-31T23:52:46.664Z,1.87
2019-01-31T23:55:17.041Z,1.81
2019-01-31T23:57:45.727Z,1.77
